sensor_id;sensor_type;location;lat;lon;timestamp;temperature;humidity
30134;DHT22;16946;49.984;10.672;2023-07-20T00:00:21;18.60;99.90
30134;DHT22;16946;49.984;10.672;2023-07-20T00:00:51;18.60;99.90
30134;DHT22;16946;49.984;10.672;2023-07-20T00:01:23;18.60;99.90
30134;DHT22;16946;49.984;10.672;2023-07-20T00:01:54;18.60;99.90
30134;DHT22;16946;49.984;10.672;2023-07-20T00:02:25;18.60;99.90
30134;DHT22;16946;49.984;10.672;2023-07-20T00:03:14;18.60;99.90
30134;DHT22;16946;49.984;10.672;2023-07-20T00:03:47;18.60;99.90
30134;DHT22;16946;49.984;10.672;2023-07-20T00:04:24;18.60;99.90
30134;DHT22;16946;49.984;10.672;2023-07-20T00:04:55;18.60;99.90
30134;DHT22;16946;49.984;10.672;2023-07-20T00:05:25;18.60;99.90
30134;DHT22;16946;49.984;10.672;2023-07-20T00:05:56;18.60;99.90
30134;DHT22;16946;49.984;10.672;2023-07-20T00:06:27;18.50;99.90
30134;DHT22;16946;49.984;10.672;2023-07-20T00:06:58;18.50;99.90
30134;DHT22;16946;49.984;10.672;2023-07-20T00:07:29;18.50;99.90
30134;DHT22;16946;49.984;10.672;2023-07-20T00:07:59;18.50;99.90
30134;DHT22;16946;49.984;10.672;2023-07-20T00:08:30;18.50;99.90
30134;DHT22;16946;49.984;10.672;2023-07-20T00:09:01;18.50;99.90
30134;DHT22;16946;49.984;10.672;2023-07-20T00:09:31;18.50;99.90
30134;DHT22;16946;49.984;10.672;2023-07-20T00:10:02;18.50;99.90
30134;DHT22;16946;49.984;10.672;2023-07-20T00:10:32;18.50;99.90
30134;DHT22;16946;49.984;10.672;2023-07-20T00:11:03;18.40;99.90
30134;DHT22;16946;49.984;10.672;2023-07-20T00:11:37;18.40;99.90
30134;DHT22;16946;49.984;10.672;2023-07-20T00:12:10;18.40;99.90
30134;DHT22;16946;49.984;10.672;2023-07-20T00:12:40;18.40;99.90
30134;DHT22;16946;49.984;10.672;2023-07-20T00:13:11;18.30;99.90
30134;DHT22;16946;49.984;10.672;2023-07-20T00:13:42;18.40;99.90
30134;DHT22;16946;49.984;10.672;2023-07-20T00:14:13;18.40;99.90
30134;DHT22;16946;49.984;10.672;2023-07-20T00:14:43;18.30;99.90
30134;DHT22;16946;49.984;10.672;2023-07-20T00:15:14;18.40;99.90
30134;DHT22;16946;49.984;10.672;2023-07-20T00:15:44;18.30;99.90
30134;DHT22;16946;49.984;10.672;2023-07-20T00:16:15;18.40;99.90
30134;DHT22;16946;49.984;10.672;2023-07-20T00:16:46;18.30;99.90
30134;DHT22;16946;49.984;10.672;2023-07-20T00:17:16;18.30;99.90
30134;DHT22;16946;49.984;10.672;2023-07-20T00:17:47;18.30;99.90
30134;DHT22;16946;49.984;10.672;2023-07-20T00:18:17;18.30;99.90
30134;DHT22;16946;49.984;10.672;2023-07-20T00:18:51;18.30;99.90
30134;DHT22;16946;49.984;10.672;2023-07-20T00:19:24;18.30;99.90
30134;DHT22;16946;49.984;10.672;2023-07-20T00:19:54;18.20;99.90
30134;DHT22;16946;49.984;10.672;2023-07-20T00:20:25;18.20;99.90
30134;DHT22;16946;49.984;10.672;2023-07-20T00:20:56;18.20;99.90
30134;DHT22;16946;49.984;10.672;2023-07-20T00:21:26;18.20;99.90
30134;DHT22;16946;49.984;10.672;2023-07-20T00:21:57;18.20;99.90
30134;DHT22;16946;49.984;10.672;2023-07-20T00:22:27;18.10;99.90
30134;DHT22;16946;49.984;10.672;2023-07-20T00:22:58;18.10;99.90
30134;DHT22;16946;49.984;10.672;2023-07-20T00:23:29;18.10;99.90
30134;DHT22;16946;49.984;10.672;2023-07-20T00:23:59;18.00;99.90
30134;DHT22;16946;49.984;10.672;2023-07-20T00:24:30;18.00;99.90
30134;DHT22;16946;49.984;10.672;2023-07-20T00:25:01;18.00;99.90
30134;DHT22;16946;49.984;10.672;2023-07-20T00:25:32;18.00;99.90
30134;DHT22;16946;49.984;10.672;2023-07-20T00:26:03;18.00;99.90
30134;DHT22;16946;49.984;10.672;2023-07-20T00:26:34;18.00;99.90
30134;DHT22;16946;49.984;10.672;2023-07-20T00:27:05;18.00;99.90
30134;DHT22;16946;49.984;10.672;2023-07-20T00:27:35;18.10;99.90
30134;DHT22;16946;49.984;10.672;2023-07-20T00:28:06;18.10;99.90
30134;DHT22;16946;49.984;10.672;2023-07-20T00:28:36;18.10;99.90
30134;DHT22;16946;49.984;10.672;2023-07-20T00:29:07;18.10;99.90
30134;DHT22;16946;49.984;10.672;2023-07-20T00:29:37;18.10;99.90
30134;DHT22;16946;49.984;10.672;2023-07-20T00:30:08;18.10;99.90
30134;DHT22;16946;49.984;10.672;2023-07-20T00:30:39;18.10;99.90
30134;DHT22;16946;49.984;10.672;2023-07-20T00:31:10;18.00;99.90
30134;DHT22;16946;49.984;10.672;2023-07-20T00:31:40;18.00;99.90
30134;DHT22;16946;49.984;10.672;2023-07-20T00:32:11;18.00;99.90
30134;DHT22;16946;49.984;10.672;2023-07-20T00:32:42;18.00;99.90
30134;DHT22;16946;49.984;10.672;2023-07-20T00:33:16;18.00;99.90
30134;DHT22;16946;49.984;10.672;2023-07-20T00:33:47;18.00;99.90
30134;DHT22;16946;49.984;10.672;2023-07-20T00:34:17;17.90;99.90
30134;DHT22;16946;49.984;10.672;2023-07-20T00:34:48;17.90;99.90
30134;DHT22;16946;49.984;10.672;2023-07-20T00:35:18;17.80;99.90
30134;DHT22;16946;49.984;10.672;2023-07-20T00:35:49;17.80;99.90
30134;DHT22;16946;49.984;10.672;2023-07-20T00:36:19;17.80;99.90
30134;DHT22;16946;49.984;10.672;2023-07-20T00:36:50;17.80;99.90
30134;DHT22;16946;49.984;10.672;2023-07-20T00:37:21;17.80;99.90
30134;DHT22;16946;49.984;10.672;2023-07-20T00:37:51;17.70;99.90
30134;DHT22;16946;49.984;10.672;2023-07-20T00:38:22;17.70;99.90
30134;DHT22;16946;49.984;10.672;2023-07-20T00:38:52;17.60;99.90
30134;DHT22;16946;49.984;10.672;2023-07-20T00:39:23;17.60;99.90
30134;DHT22;16946;49.984;10.672;2023-07-20T00:39:54;17.60;99.90
30134;DHT22;16946;49.984;10.672;2023-07-20T00:40:24;17.50;99.90
30134;DHT22;16946;49.984;10.672;2023-07-20T00:40:55;17.50;99.90
30134;DHT22;16946;49.984;10.672;2023-07-20T00:41:25;17.40;99.90
30134;DHT22;16946;49.984;10.672;2023-07-20T00:41:59;17.40;99.90
30134;DHT22;16946;49.984;10.672;2023-07-20T00:42:31;17.40;99.90
30134;DHT22;16946;49.984;10.672;2023-07-20T00:43:01;17.30;99.90
30134;DHT22;16946;49.984;10.672;2023-07-20T00:43:32;17.30;99.90
30134;DHT22;16946;49.984;10.672;2023-07-20T00:44:04;17.30;99.90
30134;DHT22;16946;49.984;10.672;2023-07-20T00:44:35;17.30;99.90
30134;DHT22;16946;49.984;10.672;2023-07-20T00:45:06;17.20;99.90
30134;DHT22;16946;49.984;10.672;2023-07-20T00:45:36;17.20;99.90
30134;DHT22;16946;49.984;10.672;2023-07-20T00:46:08;17.20;99.90
30134;DHT22;16946;49.984;10.672;2023-07-20T00:46:39;17.20;99.90
30134;DHT22;16946;49.984;10.672;2023-07-20T00:47:12;17.20;99.90
30134;DHT22;16946;49.984;10.672;2023-07-20T00:47:42;17.20;99.90
30134;DHT22;16946;49.984;10.672;2023-07-20T00:48:14;17.20;99.90
30134;DHT22;16946;49.984;10.672;2023-07-20T00:48:45;17.20;99.90
30134;DHT22;16946;49.984;10.672;2023-07-20T00:49:16;17.20;99.90
30134;DHT22;16946;49.984;10.672;2023-07-20T00:49:47;17.20;99.90
30134;DHT22;16946;49.984;10.672;2023-07-20T00:50:17;17.20;99.90
30134;DHT22;16946;49.984;10.672;2023-07-20T00:50:48;17.10;99.90
30134;DHT22;16946;49.984;10.672;2023-07-20T00:51:20;17.10;99.90
30134;DHT22;16946;49.984;10.672;2023-07-20T00:51:51;17.10;99.90
30134;DHT22;16946;49.984;10.672;2023-07-20T00:52:23;17.10;99.90
30134;DHT22;16946;49.984;10.672;2023-07-20T00:52:57;17.10;99.90
30134;DHT22;16946;49.984;10.672;2023-07-20T00:53:28;17.10;99.90
30134;DHT22;16946;49.984;10.672;2023-07-20T00:53:59;17.20;99.90
30134;DHT22;16946;49.984;10.672;2023-07-20T00:54:30;17.20;99.90
30134;DHT22;16946;49.984;10.672;2023-07-20T00:55:01;17.20;99.90
30134;DHT22;16946;49.984;10.672;2023-07-20T00:55:31;17.20;99.90
30134;DHT22;16946;49.984;10.672;2023-07-20T00:56:02;17.30;99.90
30134;DHT22;16946;49.984;10.672;2023-07-20T00:56:33;17.30;99.90
30134;DHT22;16946;49.984;10.672;2023-07-20T00:57:04;17.30;99.90
30134;DHT22;16946;49.984;10.672;2023-07-20T00:57:36;17.30;99.90
30134;DHT22;16946;49.984;10.672;2023-07-20T00:58:07;17.40;99.90
30134;DHT22;16946;49.984;10.672;2023-07-20T00:58:38;17.40;99.90
30134;DHT22;16946;49.984;10.672;2023-07-20T00:59:09;17.40;99.90
30134;DHT22;16946;49.984;10.672;2023-07-20T00:59:40;17.50;99.90
30134;DHT22;16946;49.984;10.672;2023-07-20T01:00:11;17.50;99.90
30134;DHT22;16946;49.984;10.672;2023-07-20T01:00:42;17.50;99.90
30134;DHT22;16946;49.984;10.672;2023-07-20T01:01:13;17.60;99.90
30134;DHT22;16946;49.984;10.672;2023-07-20T01:01:44;17.60;99.90
30134;DHT22;16946;49.984;10.672;2023-07-20T01:02:15;17.60;99.90
30134;DHT22;16946;49.984;10.672;2023-07-20T01:02:45;17.60;99.90
30134;DHT22;16946;49.984;10.672;2023-07-20T01:03:17;17.60;99.90
30134;DHT22;16946;49.984;10.672;2023-07-20T01:03:48;17.60;99.90
30134;DHT22;16946;49.984;10.672;2023-07-20T01:04:19;17.60;99.90
30134;DHT22;16946;49.984;10.672;2023-07-20T01:04:50;17.60;99.90
30134;DHT22;16946;49.984;10.672;2023-07-20T01:05:21;17.70;99.90
30134;DHT22;16946;49.984;10.672;2023-07-20T01:07:53;17.70;99.90
30134;DHT22;16946;49.984;10.672;2023-07-20T01:08:36;17.70;99.90
30134;DHT22;16946;49.984;10.672;2023-07-20T01:09:18;17.60;99.90
30134;DHT22;16946;49.984;10.672;2023-07-20T01:10:46;17.70;99.90
30134;DHT22;16946;49.984;10.672;2023-07-20T01:12:14;17.80;99.90
30134;DHT22;16946;49.984;10.672;2023-07-20T01:12:52;17.80;99.90
30134;DHT22;16946;49.984;10.672;2023-07-20T01:13:23;17.90;99.90
30134;DHT22;16946;49.984;10.672;2023-07-20T01:13:56;17.90;99.90
30134;DHT22;16946;49.984;10.672;2023-07-20T01:14:27;17.90;99.90
30134;DHT22;16946;49.984;10.672;2023-07-20T01:14:58;17.90;99.90
30134;DHT22;16946;49.984;10.672;2023-07-20T01:15:29;17.90;99.90
30134;DHT22;16946;49.984;10.672;2023-07-20T01:16:02;18.00;99.90
30134;DHT22;16946;49.984;10.672;2023-07-20T01:16:33;18.00;99.90
30134;DHT22;16946;49.984;10.672;2023-07-20T01:17:04;18.00;99.90
30134;DHT22;16946;49.984;10.672;2023-07-20T01:17:35;18.00;99.90
30134;DHT22;16946;49.984;10.672;2023-07-20T01:18:06;18.00;99.90
30134;DHT22;16946;49.984;10.672;2023-07-20T01:18:37;18.00;99.90
30134;DHT22;16946;49.984;10.672;2023-07-20T01:19:08;17.90;99.90
30134;DHT22;16946;49.984;10.672;2023-07-20T01:19:38;17.90;99.90
30134;DHT22;16946;49.984;10.672;2023-07-20T01:20:13;17.90;99.90
30134;DHT22;16946;49.984;10.672;2023-07-20T01:20:44;17.90;99.90
30134;DHT22;16946;49.984;10.672;2023-07-20T01:21:22;17.80;99.90
30134;DHT22;16946;49.984;10.672;2023-07-20T01:23:39;18.00;99.90
30134;DHT22;16946;49.984;10.672;2023-07-20T01:24:32;18.00;99.90
30134;DHT22;16946;49.984;10.672;2023-07-20T01:25:25;18.00;99.90
30134;DHT22;16946;49.984;10.672;2023-07-20T01:29:16;17.90;99.90
30134;DHT22;16946;49.984;10.672;2023-07-20T01:30:03;17.90;99.90
30134;DHT22;16946;49.984;10.672;2023-07-20T01:31:39;17.80;99.90
30134;DHT22;16946;49.984;10.672;2023-07-20T01:32:12;17.80;99.90
30134;DHT22;16946;49.984;10.672;2023-07-20T01:32:44;17.80;99.90
30134;DHT22;16946;49.984;10.672;2023-07-20T01:33:17;17.90;99.90
30134;DHT22;16946;49.984;10.672;2023-07-20T01:33:50;17.80;99.90
30134;DHT22;16946;49.984;10.672;2023-07-20T01:34:23;17.80;99.90
30134;DHT22;16946;49.984;10.672;2023-07-20T01:34:55;17.90;99.90
30134;DHT22;16946;49.984;10.672;2023-07-20T01:35:29;17.90;99.90
30134;DHT22;16946;49.984;10.672;2023-07-20T01:36:01;17.90;99.90
30134;DHT22;16946;49.984;10.672;2023-07-20T01:36:35;17.90;99.90
30134;DHT22;16946;49.984;10.672;2023-07-20T01:37:06;17.90;99.90
30134;DHT22;16946;49.984;10.672;2023-07-20T01:37:37;17.90;99.90
30134;DHT22;16946;49.984;10.672;2023-07-20T01:38:08;17.90;99.90
30134;DHT22;16946;49.984;10.672;2023-07-20T01:38:39;17.80;99.90
30134;DHT22;16946;49.984;10.672;2023-07-20T01:39:10;17.80;99.90
30134;DHT22;16946;49.984;10.672;2023-07-20T01:39:41;17.80;99.90
30134;DHT22;16946;49.984;10.672;2023-07-20T01:40:13;17.70;99.90
30134;DHT22;16946;49.984;10.672;2023-07-20T01:40:45;17.70;99.90
30134;DHT22;16946;49.984;10.672;2023-07-20T01:41:15;17.70;99.90
30134;DHT22;16946;49.984;10.672;2023-07-20T01:41:47;17.70;99.90
30134;DHT22;16946;49.984;10.672;2023-07-20T01:42:17;17.60;99.90
30134;DHT22;16946;49.984;10.672;2023-07-20T01:42:48;17.60;99.90
30134;DHT22;16946;49.984;10.672;2023-07-20T01:43:19;17.50;99.90
30134;DHT22;16946;49.984;10.672;2023-07-20T01:43:49;17.50;99.90
30134;DHT22;16946;49.984;10.672;2023-07-20T01:44:20;17.50;99.90
30134;DHT22;16946;49.984;10.672;2023-07-20T01:44:51;17.50;99.90
30134;DHT22;16946;49.984;10.672;2023-07-20T01:45:25;17.50;99.90
30134;DHT22;16946;49.984;10.672;2023-07-20T01:45:56;17.50;99.90
30134;DHT22;16946;49.984;10.672;2023-07-20T01:46:26;17.60;99.90
30134;DHT22;16946;49.984;10.672;2023-07-20T01:46:57;17.60;99.90
30134;DHT22;16946;49.984;10.672;2023-07-20T01:47:27;17.60;99.90
30134;DHT22;16946;49.984;10.672;2023-07-20T01:47:58;17.60;99.90
30134;DHT22;16946;49.984;10.672;2023-07-20T01:48:28;17.60;99.90
30134;DHT22;16946;49.984;10.672;2023-07-20T01:48:59;17.70;99.90
30134;DHT22;16946;49.984;10.672;2023-07-20T01:49:30;17.70;99.90
30134;DHT22;16946;49.984;10.672;2023-07-20T01:50:00;17.70;99.90
30134;DHT22;16946;49.984;10.672;2023-07-20T01:50:31;17.70;99.90
30134;DHT22;16946;49.984;10.672;2023-07-20T01:51:01;17.70;99.90
30134;DHT22;16946;49.984;10.672;2023-07-20T01:51:32;17.70;99.90
30134;DHT22;16946;49.984;10.672;2023-07-20T01:52:02;17.70;99.90
30134;DHT22;16946;49.984;10.672;2023-07-20T01:52:33;17.70;99.90
30134;DHT22;16946;49.984;10.672;2023-07-20T01:53:04;17.60;99.90
30134;DHT22;16946;49.984;10.672;2023-07-20T01:53:34;17.60;99.90
30134;DHT22;16946;49.984;10.672;2023-07-20T01:54:05;17.60;99.90
30134;DHT22;16946;49.984;10.672;2023-07-20T01:54:35;17.50;99.90
30134;DHT22;16946;49.984;10.672;2023-07-20T01:55:06;17.50;99.90
30134;DHT22;16946;49.984;10.672;2023-07-20T01:55:37;17.50;99.90
30134;DHT22;16946;49.984;10.672;2023-07-20T01:56:08;17.40;99.90
30134;DHT22;16946;49.984;10.672;2023-07-20T01:56:38;17.40;99.90
30134;DHT22;16946;49.984;10.672;2023-07-20T01:57:09;17.40;99.90
30134;DHT22;16946;49.984;10.672;2023-07-20T01:57:39;17.40;99.90
30134;DHT22;16946;49.984;10.672;2023-07-20T01:58:10;17.40;99.90
30134;DHT22;16946;49.984;10.672;2023-07-20T01:58:40;17.40;99.90
30134;DHT22;16946;49.984;10.672;2023-07-20T01:59:11;17.40;99.90
30134;DHT22;16946;49.984;10.672;2023-07-20T01:59:41;17.30;99.90
30134;DHT22;16946;49.984;10.672;2023-07-20T02:00:12;17.30;99.90
30134;DHT22;16946;49.984;10.672;2023-07-20T02:00:43;17.30;99.90
30134;DHT22;16946;49.984;10.672;2023-07-20T02:01:13;17.30;99.90
30134;DHT22;16946;49.984;10.672;2023-07-20T02:01:44;17.30;99.90
30134;DHT22;16946;49.984;10.672;2023-07-20T02:02:14;17.20;99.90
30134;DHT22;16946;49.984;10.672;2023-07-20T02:02:45;17.20;99.90
30134;DHT22;16946;49.984;10.672;2023-07-20T02:03:16;17.20;99.90
30134;DHT22;16946;49.984;10.672;2023-07-20T02:03:46;17.20;99.90
30134;DHT22;16946;49.984;10.672;2023-07-20T02:04:17;17.20;99.90
30134;DHT22;16946;49.984;10.672;2023-07-20T02:04:47;17.20;99.90
30134;DHT22;16946;49.984;10.672;2023-07-20T02:05:18;17.20;99.90
30134;DHT22;16946;49.984;10.672;2023-07-20T02:05:49;17.20;99.90
30134;DHT22;16946;49.984;10.672;2023-07-20T02:06:19;17.20;99.90
30134;DHT22;16946;49.984;10.672;2023-07-20T02:06:50;17.20;99.90
30134;DHT22;16946;49.984;10.672;2023-07-20T02:07:21;17.20;99.90
30134;DHT22;16946;49.984;10.672;2023-07-20T02:07:51;17.20;99.90
30134;DHT22;16946;49.984;10.672;2023-07-20T02:08:22;17.20;99.90
30134;DHT22;16946;49.984;10.672;2023-07-20T02:08:53;17.20;99.90
30134;DHT22;16946;49.984;10.672;2023-07-20T02:09:23;17.20;99.90
30134;DHT22;16946;49.984;10.672;2023-07-20T02:09:54;17.20;99.90
30134;DHT22;16946;49.984;10.672;2023-07-20T02:10:24;17.20;99.90
30134;DHT22;16946;49.984;10.672;2023-07-20T02:10:55;17.20;99.90
30134;DHT22;16946;49.984;10.672;2023-07-20T02:11:25;17.10;99.90
30134;DHT22;16946;49.984;10.672;2023-07-20T02:11:56;17.20;99.90
30134;DHT22;16946;49.984;10.672;2023-07-20T02:12:26;17.10;99.90
30134;DHT22;16946;49.984;10.672;2023-07-20T02:12:57;17.10;99.90
30134;DHT22;16946;49.984;10.672;2023-07-20T02:13:27;17.10;99.90
30134;DHT22;16946;49.984;10.672;2023-07-20T02:13:58;17.10;99.90
30134;DHT22;16946;49.984;10.672;2023-07-20T02:14:28;17.10;99.90
30134;DHT22;16946;49.984;10.672;2023-07-20T02:14:59;17.10;99.90
30134;DHT22;16946;49.984;10.672;2023-07-20T02:15:30;17.00;99.90
30134;DHT22;16946;49.984;10.672;2023-07-20T02:16:00;17.00;99.90
30134;DHT22;16946;49.984;10.672;2023-07-20T02:16:31;17.00;99.90
30134;DHT22;16946;49.984;10.672;2023-07-20T02:17:01;17.00;99.90
30134;DHT22;16946;49.984;10.672;2023-07-20T02:17:32;17.00;99.90
30134;DHT22;16946;49.984;10.672;2023-07-20T02:18:03;17.00;99.90
30134;DHT22;16946;49.984;10.672;2023-07-20T02:18:33;17.00;99.90
30134;DHT22;16946;49.984;10.672;2023-07-20T02:19:04;17.00;99.90
30134;DHT22;16946;49.984;10.672;2023-07-20T02:19:37;17.00;99.90
30134;DHT22;16946;49.984;10.672;2023-07-20T02:20:09;17.00;99.90
30134;DHT22;16946;49.984;10.672;2023-07-20T02:20:41;17.00;99.90
30134;DHT22;16946;49.984;10.672;2023-07-20T02:21:12;17.10;99.90
30134;DHT22;16946;49.984;10.672;2023-07-20T02:21:43;17.00;99.90
30134;DHT22;16946;49.984;10.672;2023-07-20T02:22:14;17.10;99.90
30134;DHT22;16946;49.984;10.672;2023-07-20T02:22:44;17.00;99.90
30134;DHT22;16946;49.984;10.672;2023-07-20T02:23:15;17.00;99.90
30134;DHT22;16946;49.984;10.672;2023-07-20T02:23:45;17.00;99.90
30134;DHT22;16946;49.984;10.672;2023-07-20T02:24:16;17.00;99.90
30134;DHT22;16946;49.984;10.672;2023-07-20T02:24:46;17.00;99.90
30134;DHT22;16946;49.984;10.672;2023-07-20T02:25:17;17.00;99.90
30134;DHT22;16946;49.984;10.672;2023-07-20T02:25:47;17.00;99.90
30134;DHT22;16946;49.984;10.672;2023-07-20T02:26:18;16.90;99.90
30134;DHT22;16946;49.984;10.672;2023-07-20T02:26:48;17.00;99.90
30134;DHT22;16946;49.984;10.672;2023-07-20T02:27:19;17.00;99.90
30134;DHT22;16946;49.984;10.672;2023-07-20T02:27:49;17.10;99.90
30134;DHT22;16946;49.984;10.672;2023-07-20T02:28:20;17.20;99.90
30134;DHT22;16946;49.984;10.672;2023-07-20T02:28:50;17.20;99.90
30134;DHT22;16946;49.984;10.672;2023-07-20T02:29:21;17.20;99.90
30134;DHT22;16946;49.984;10.672;2023-07-20T02:29:51;17.30;99.90
30134;DHT22;16946;49.984;10.672;2023-07-20T02:30:22;17.30;99.90
30134;DHT22;16946;49.984;10.672;2023-07-20T02:30:53;17.20;99.90
30134;DHT22;16946;49.984;10.672;2023-07-20T02:31:24;17.30;99.90
30134;DHT22;16946;49.984;10.672;2023-07-20T02:31:54;17.30;99.90
30134;DHT22;16946;49.984;10.672;2023-07-20T02:32:25;17.20;99.90
30134;DHT22;16946;49.984;10.672;2023-07-20T02:32:55;17.20;99.90
30134;DHT22;16946;49.984;10.672;2023-07-20T02:33:28;17.20;99.90
30134;DHT22;16946;49.984;10.672;2023-07-20T02:33:59;17.20;99.90
30134;DHT22;16946;49.984;10.672;2023-07-20T02:34:29;17.10;99.90
30134;DHT22;16946;49.984;10.672;2023-07-20T02:35:00;17.20;99.90
30134;DHT22;16946;49.984;10.672;2023-07-20T02:35:31;17.20;99.90
30134;DHT22;16946;49.984;10.672;2023-07-20T02:36:01;17.10;99.90
30134;DHT22;16946;49.984;10.672;2023-07-20T02:36:33;17.10;99.90
30134;DHT22;16946;49.984;10.672;2023-07-20T02:37:04;17.10;99.90
30134;DHT22;16946;49.984;10.672;2023-07-20T02:37:35;17.00;99.90
30134;DHT22;16946;49.984;10.672;2023-07-20T02:38:06;17.10;99.90
30134;DHT22;16946;49.984;10.672;2023-07-20T02:38:37;17.10;99.90
30134;DHT22;16946;49.984;10.672;2023-07-20T02:39:08;17.00;99.90
30134;DHT22;16946;49.984;10.672;2023-07-20T02:39:39;17.00;99.90
30134;DHT22;16946;49.984;10.672;2023-07-20T02:40:10;17.00;99.90
30134;DHT22;16946;49.984;10.672;2023-07-20T02:40:40;17.00;99.90
30134;DHT22;16946;49.984;10.672;2023-07-20T02:41:11;17.00;99.90
30134;DHT22;16946;49.984;10.672;2023-07-20T02:41:42;17.00;99.90
30134;DHT22;16946;49.984;10.672;2023-07-20T02:42:12;17.00;99.90
30134;DHT22;16946;49.984;10.672;2023-07-20T02:42:43;17.00;99.90
30134;DHT22;16946;49.984;10.672;2023-07-20T02:43:14;17.00;99.90
30134;DHT22;16946;49.984;10.672;2023-07-20T02:43:44;17.00;99.90
30134;DHT22;16946;49.984;10.672;2023-07-20T02:44:15;17.00;99.90
30134;DHT22;16946;49.984;10.672;2023-07-20T02:44:45;17.00;99.90
30134;DHT22;16946;49.984;10.672;2023-07-20T02:45:16;17.00;99.90
30134;DHT22;16946;49.984;10.672;2023-07-20T02:45:47;17.00;99.90
30134;DHT22;16946;49.984;10.672;2023-07-20T02:46:17;17.00;99.90
30134;DHT22;16946;49.984;10.672;2023-07-20T02:46:48;17.00;99.90
30134;DHT22;16946;49.984;10.672;2023-07-20T02:47:19;17.00;99.90
30134;DHT22;16946;49.984;10.672;2023-07-20T02:47:50;17.00;99.90
30134;DHT22;16946;49.984;10.672;2023-07-20T02:48:20;17.00;99.90
30134;DHT22;16946;49.984;10.672;2023-07-20T02:48:51;17.00;99.90
30134;DHT22;16946;49.984;10.672;2023-07-20T02:49:22;17.00;99.90
30134;DHT22;16946;49.984;10.672;2023-07-20T02:49:52;17.00;99.90
30134;DHT22;16946;49.984;10.672;2023-07-20T02:50:23;17.10;99.90
30134;DHT22;16946;49.984;10.672;2023-07-20T02:50:53;17.10;99.90
30134;DHT22;16946;49.984;10.672;2023-07-20T02:51:24;17.10;99.90
30134;DHT22;16946;49.984;10.672;2023-07-20T02:51:54;17.10;99.90
30134;DHT22;16946;49.984;10.672;2023-07-20T02:52:25;17.00;99.90
30134;DHT22;16946;49.984;10.672;2023-07-20T02:52:55;17.00;99.90
30134;DHT22;16946;49.984;10.672;2023-07-20T02:53:26;17.00;99.90
30134;DHT22;16946;49.984;10.672;2023-07-20T02:53:56;17.00;99.90
30134;DHT22;16946;49.984;10.672;2023-07-20T02:54:28;17.00;99.90
30134;DHT22;16946;49.984;10.672;2023-07-20T02:55:00;17.00;99.90
30134;DHT22;16946;49.984;10.672;2023-07-20T02:55:31;17.00;99.90
30134;DHT22;16946;49.984;10.672;2023-07-20T02:56:01;17.00;99.90
30134;DHT22;16946;49.984;10.672;2023-07-20T02:56:32;17.00;99.90
30134;DHT22;16946;49.984;10.672;2023-07-20T02:57:02;17.00;99.90
30134;DHT22;16946;49.984;10.672;2023-07-20T02:57:33;17.00;99.90
30134;DHT22;16946;49.984;10.672;2023-07-20T02:58:04;17.00;99.90
30134;DHT22;16946;49.984;10.672;2023-07-20T02:58:34;17.00;99.90
30134;DHT22;16946;49.984;10.672;2023-07-20T02:59:09;17.00;99.90
30134;DHT22;16946;49.984;10.672;2023-07-20T02:59:40;17.10;99.90
30134;DHT22;16946;49.984;10.672;2023-07-20T03:00:11;17.10;99.90
30134;DHT22;16946;49.984;10.672;2023-07-20T03:00:45;17.10;99.90
30134;DHT22;16946;49.984;10.672;2023-07-20T03:01:16;17.10;99.90
30134;DHT22;16946;49.984;10.672;2023-07-20T03:01:46;17.10;99.90
30134;DHT22;16946;49.984;10.672;2023-07-20T03:02:17;17.10;99.90
30134;DHT22;16946;49.984;10.672;2023-07-20T03:02:47;17.10;99.90
30134;DHT22;16946;49.984;10.672;2023-07-20T03:03:19;17.10;99.90
30134;DHT22;16946;49.984;10.672;2023-07-20T03:03:50;17.10;99.90
30134;DHT22;16946;49.984;10.672;2023-07-20T03:04:21;17.10;99.90
30134;DHT22;16946;49.984;10.672;2023-07-20T03:04:52;17.10;99.90
30134;DHT22;16946;49.984;10.672;2023-07-20T03:05:22;17.00;99.90
30134;DHT22;16946;49.984;10.672;2023-07-20T03:05:55;17.00;99.90
30134;DHT22;16946;49.984;10.672;2023-07-20T03:06:28;17.00;99.90
30134;DHT22;16946;49.984;10.672;2023-07-20T03:06:58;17.00;99.90
30134;DHT22;16946;49.984;10.672;2023-07-20T03:07:30;17.00;99.90
30134;DHT22;16946;49.984;10.672;2023-07-20T03:08:00;17.00;99.90
30134;DHT22;16946;49.984;10.672;2023-07-20T03:08:32;16.90;99.90
30134;DHT22;16946;49.984;10.672;2023-07-20T03:09:03;17.00;99.90
30134;DHT22;16946;49.984;10.672;2023-07-20T03:09:34;16.90;99.90
30134;DHT22;16946;49.984;10.672;2023-07-20T03:10:05;16.90;99.90
30134;DHT22;16946;49.984;10.672;2023-07-20T03:10:40;16.90;99.90
30134;DHT22;16946;49.984;10.672;2023-07-20T03:11:11;16.90;99.90
30134;DHT22;16946;49.984;10.672;2023-07-20T03:11:41;16.90;99.90
30134;DHT22;16946;49.984;10.672;2023-07-20T03:12:12;16.90;99.90
30134;DHT22;16946;49.984;10.672;2023-07-20T03:12:42;16.90;99.90
30134;DHT22;16946;49.984;10.672;2023-07-20T03:13:13;16.90;99.90
30134;DHT22;16946;49.984;10.672;2023-07-20T03:13:45;17.00;99.90
30134;DHT22;16946;49.984;10.672;2023-07-20T03:14:15;17.10;99.90
30134;DHT22;16946;49.984;10.672;2023-07-20T03:14:46;17.10;99.90
30134;DHT22;16946;49.984;10.672;2023-07-20T03:15:16;17.10;99.90
30134;DHT22;16946;49.984;10.672;2023-07-20T03:15:47;17.10;99.90
30134;DHT22;16946;49.984;10.672;2023-07-20T03:16:19;17.10;99.90
30134;DHT22;16946;49.984;10.672;2023-07-20T03:16:50;17.20;99.90
30134;DHT22;16946;49.984;10.672;2023-07-20T03:17:20;17.20;99.90
30134;DHT22;16946;49.984;10.672;2023-07-20T03:17:51;17.20;99.90
30134;DHT22;16946;49.984;10.672;2023-07-20T03:18:22;17.20;99.90
30134;DHT22;16946;49.984;10.672;2023-07-20T03:18:52;17.20;99.90
30134;DHT22;16946;49.984;10.672;2023-07-20T03:19:23;17.10;99.90
30134;DHT22;16946;49.984;10.672;2023-07-20T03:19:53;17.10;99.90
30134;DHT22;16946;49.984;10.672;2023-07-20T03:20:24;17.10;99.90
30134;DHT22;16946;49.984;10.672;2023-07-20T03:20:55;17.10;99.90
30134;DHT22;16946;49.984;10.672;2023-07-20T03:21:25;17.10;99.90
30134;DHT22;16946;49.984;10.672;2023-07-20T03:21:56;17.10;99.90
30134;DHT22;16946;49.984;10.672;2023-07-20T03:22:27;17.10;99.90
30134;DHT22;16946;49.984;10.672;2023-07-20T03:22:57;17.10;99.90
30134;DHT22;16946;49.984;10.672;2023-07-20T03:23:28;17.20;99.90
30134;DHT22;16946;49.984;10.672;2023-07-20T03:23:58;17.10;99.90
30134;DHT22;16946;49.984;10.672;2023-07-20T03:24:29;17.20;99.90